Погода Дорина неделю

Дори, Буркина-Фасо

26 июня-02 июля
  • 26июня
    Сегодня
    +28°
    +37°
    Практически безоблачно
    ВремяПогодаТемператураВлажностьДавлениеВетер, м/сВероятность осадков
    00:00Практически безоблачно+31°C58 %734 мм4.2 м/с2 %
    03:00Ясно и безоблачно+30°C65 %734 мм3.6 м/с2 %
    06:00Практически безоблачно+29°C70 %734 мм3.4 м/с2 %
    09:00Ясно и безоблачно+31°C54 %734 мм5.0 м/с2 %
    12:00Ясно и безоблачно+35°C37 %734 мм2.2 м/с1 %
    15:00Практически безоблачно+36°C34 %732 мм1.5 м/с1 %
    18:00Ясно и безоблачно+36°C33 %731 мм0.7 м/с3 %
    21:00Ясно и безоблачно+32°C42 %733 мм2.1 м/с2 %
  • 27июня
    Четверг
    +26°
    +38°
    Ясно и безоблачно
    ВремяПогодаТемператураВлажностьДавлениеВетер, м/сВероятность осадков
    00:00Ясно и безоблачно+32°C50 %733 мм4.4 м/с2 %
    03:00Ясно и безоблачно+30°C56 %733 мм3.5 м/с3 %
    06:00Ясно и безоблачно+29°C63 %733 мм4.3 м/с4 %
    09:00Ясно и безоблачно+31°C49 %734 мм5.7 м/с2 %
    12:00Ясно и безоблачно+35°C35 %733 мм2.9 м/с2 %
    15:00Ясно и безоблачно+38°C27 %731 мм0.8 м/с2 %
    18:00Практически безоблачно+37°C28 %731 мм1.0 м/с2 %
    21:00Ясно и безоблачно+33°C37 %733 мм2.3 м/с7 %
  • 28июня
    Пятница
    +28°
    +37°
    Практически безоблачно
    ВремяПогодаТемператураВлажностьДавлениеВетер, м/сВероятность осадков
    00:00Ясно и безоблачно+32°C42 %733 мм3.2 м/с5 %
    03:00Ясно и безоблачно+31°C53 %733 мм4.8 м/с3 %
    06:00Небольшая облачность+29°C58 %733 мм4.9 м/с3 %
    09:00Ясно и безоблачно+31°C44 %734 мм6.0 м/с2 %
    12:00Ясно и безоблачно+35°C32 %733 мм4.6 м/с2 %
    15:00Практически безоблачно+38°C26 %731 мм1.5 м/с4 %
    18:00Небольшая облачность+36°C32 %731 мм3.1 м/с7 %
    21:00Ясно и безоблачно+34°C37 %732 мм6.1 м/с7 %
  • 29июня
    Суббота
    +25°
    +35°
    Ясно и безоблачно
    ВремяПогодаТемператураВлажностьДавлениеВетер, м/сВероятность осадков
    00:00Ясно и безоблачно+32°C49 %732 мм6.0 м/с3 %
    03:00Облачно с прояснениями+31°C57 %732 мм6.8 м/с5 %
    06:00Ясно и безоблачно+29°C63 %733 мм6.0 м/с2 %
    09:00Ясно и безоблачно+31°C51 %734 мм6.0 м/с4 %
    12:00Ясно и безоблачно+35°C34 %732 мм5.9 м/с2 %
    15:00Ясно и безоблачно+38°C27 %730 мм4.1 м/с7 %
    18:00Практически безоблачно+38°C27 %730 мм2.8 м/с12 %
    21:00Практически безоблачно+34°C43 %732 мм5.8 м/с12 %
Мы используем cookies
Соглашаюсь